createdAt,value
2018-05-24T00:00:19.972Z,0
2018-05-24T00:01:20.482Z,0
2018-05-24T00:02:20.241Z,0
2018-05-24T00:03:20.530Z,0
2018-05-24T00:04:20.025Z,0
2018-05-24T00:05:20.337Z,0
2018-05-24T00:06:20.446Z,0
2018-05-24T00:07:20.372Z,0
2018-05-24T00:08:20.663Z,0
2018-05-24T00:09:20.707Z,0
2018-05-24T00:10:20.209Z,0
2018-05-24T00:11:20.724Z,0
2018-05-24T00:12:20.474Z,0
2018-05-24T00:13:19.961Z,0
2018-05-24T00:14:20.523Z,0
2018-05-24T00:15:20.622Z,0
2018-05-24T00:16:20.864Z,0
2018-05-24T00:17:20.897Z,0
2018-05-24T00:18:20.875Z,0
2018-05-24T00:19:20.352Z,0
2018-05-24T00:20:20.918Z,0
2018-05-24T00:21:20.703Z,0
2018-05-24T00:22:20.988Z,0
2018-05-24T00:23:20.986Z,0
2018-05-24T00:24:21.042Z,0
2018-05-24T00:25:20.226Z,0
2018-05-24T00:26:20.791Z,0
2018-05-24T00:27:20.836Z,0
2018-05-24T00:28:20.597Z,0
2018-05-24T00:29:21.157Z,0
2018-05-24T00:30:21.157Z,0
2018-05-24T00:31:21.212Z,0
2018-05-24T00:32:20.676Z,0
2018-05-24T00:33:21.252Z,0
2018-05-24T00:34:21.018Z,0
2018-05-24T00:35:20.494Z,0
2018-05-24T00:36:21.350Z,0
2018-05-24T00:37:20.816Z,0
2018-05-24T00:38:21.090Z,0
2018-05-24T00:39:21.378Z,0
2018-05-24T00:40:21.151Z,0
2018-05-24T00:41:21.201Z,0
2018-05-24T00:42:21.192Z,0
2018-05-24T00:43:21.240Z,0
2018-05-24T00:44:21.266Z,0
2018-05-24T00:45:21.246Z,0
2018-05-24T00:46:21.603Z,0
2018-05-24T00:47:21.569Z,0
2018-05-24T00:48:21.353Z,0
2018-05-24T00:49:21.337Z,0
2018-05-24T00:50:21.371Z,0
2018-05-24T00:51:21.733Z,0
2018-05-24T00:52:21.422Z,0
2018-05-24T00:53:20.908Z,0
2018-05-24T00:54:21.186Z,0
2018-05-24T00:55:21.223Z,0
2018-05-24T00:56:21.812Z,0
2018-05-24T00:57:21.789Z,0
2018-05-24T00:58:21.548Z,0
2018-05-24T00:59:21.586Z,0
2018-05-24T01:00:21.581Z,0
2018-05-24T01:01:21.628Z,0
2018-05-24T01:02:21.932Z,0
2018-05-24T01:03:21.706Z,0
2018-05-24T01:04:21.714Z,0
2018-05-24T01:05:21.733Z,0
2018-05-24T01:06:21.754Z,0
2018-05-24T01:07:21.787Z,0
2018-05-24T01:08:21.535Z,0
2018-05-24T01:09:22.107Z,0
2018-05-24T01:10:23.065Z,0
2018-05-24T01:11:21.635Z,0
2018-05-24T01:12:21.895Z,0
2018-05-24T01:13:21.904Z,0
2018-05-24T01:14:21.943Z,0
2018-05-24T01:15:22.226Z,0
2018-05-24T01:16:22.323Z,0
2018-05-24T01:17:21.984Z,0
2018-05-24T01:18:22.050Z,0
2018-05-24T01:19:22.058Z,0
2018-05-24T01:20:22.094Z,0
2018-05-24T01:21:22.094Z,0
2018-05-24T01:22:22.436Z,0
2018-05-24T01:23:22.168Z,0
2018-05-24T01:24:22.451Z,0
2018-05-24T01:25:22.470Z,0
2018-05-24T01:26:22.564Z,0
2018-05-24T01:27:22.540Z,0
2018-05-24T01:28:21.960Z,0
2018-05-24T01:29:22.576Z,0
2018-05-24T01:30:22.056Z,0
2018-05-24T01:31:22.098Z,0
2018-05-24T01:32:22.630Z,0
2018-05-24T01:33:22.379Z,0
2018-05-24T01:34:22.676Z,0
2018-05-24T01:35:21.888Z,0
2018-05-24T01:36:22.515Z,0
2018-05-24T01:37:22.482Z,0
2018-05-24T01:38:22.498Z,0
2018-05-24T01:39:22.536Z,0
2018-05-24T01:40:22.270Z,0
2018-05-24T01:41:22.565Z,0
2018-05-24T01:42:22.291Z,0
2018-05-24T01:43:22.611Z,0
2018-05-24T01:44:22.628Z,0
2018-05-24T01:45:22.662Z,0
2018-05-24T01:46:22.681Z,0
2018-05-24T01:47:22.446Z,0
2018-05-24T01:48:22.202Z,0
2018-05-24T01:49:22.481Z,0
2018-05-24T01:50:22.790Z,0
2018-05-24T01:51:22.526Z,0
2018-05-24T01:52:23.098Z,0
2018-05-24T01:53:23.115Z,0
2018-05-24T01:54:22.594Z,0
2018-05-24T01:55:22.074Z,0
2018-05-24T01:56:22.623Z,0
2018-05-24T01:57:23.198Z,0
2018-05-24T01:58:22.979Z,0
2018-05-24T01:59:22.983Z,0
2018-05-24T02:00:23.221Z,0
2018-05-24T02:01:22.768Z,0
2018-05-24T02:02:23.301Z,0
2018-05-24T02:03:23.361Z,0
2018-05-24T02:04:23.111Z,0
2018-05-24T02:05:22.860Z,0
2018-05-24T02:06:23.479Z,0
2018-05-24T02:07:23.449Z,0
2018-05-24T02:08:23.463Z,0
2018-05-24T02:09:23.451Z,0
2018-05-24T02:10:23.248Z,0
2018-05-24T02:11:23.006Z,0
2018-05-24T02:12:23.019Z,0
2018-05-24T02:13:23.587Z,0
2018-05-24T02:14:23.334Z,0
2018-05-24T02:15:23.056Z,0
2018-05-24T02:16:22.585Z,0
2018-05-24T02:17:23.188Z,0
2018-05-24T02:18:23.432Z,0
2018-05-24T02:19:23.175Z,0
2018-05-24T02:20:23.202Z,0
2018-05-24T02:21:23.762Z,0
2018-05-24T02:22:23.532Z,0
2018-05-24T02:23:23.592Z,0
2018-05-24T02:24:23.835Z,0
2018-05-24T02:25:23.571Z,0
2018-05-24T02:26:23.890Z,0
2018-05-24T02:27:23.910Z,0
2018-05-24T02:28:23.937Z,0
2018-05-24T02:29:23.958Z,0
2018-05-24T02:30:23.435Z,0
2018-05-24T02:31:24.012Z,0
2018-05-24T02:32:23.512Z,0
2018-05-24T02:33:23.489Z,0
2018-05-24T02:34:24.068Z,0
2018-05-24T02:35:23.579Z,0
2018-05-24T02:36:24.126Z,0
2018-05-24T02:37:23.872Z,0
2018-05-24T02:38:24.177Z,0
2018-05-24T02:39:23.921Z,0
2018-05-24T02:40:23.680Z,0
2018-05-24T02:41:23.790Z,0
2018-05-24T02:42:23.983Z,0
2018-05-24T02:43:23.984Z,0
2018-05-24T02:44:24.013Z,0
2018-05-24T02:45:24.035Z,0
2018-05-24T02:46:24.302Z,0
2018-05-24T02:47:23.821Z,0
2018-05-24T02:48:23.563Z,0
2018-05-24T02:49:24.418Z,0
2018-05-24T02:50:23.882Z,0
2018-05-24T02:51:24.194Z,0
2018-05-24T02:52:24.201Z,0
2018-05-24T02:53:24.225Z,0
2018-05-24T02:54:24.545Z,0
2018-05-24T02:55:23.993Z,0
2018-05-24T02:56:24.318Z,0
2018-05-24T02:57:24.575Z,0
2018-05-24T02:58:24.636Z,0
2018-05-24T02:59:24.375Z,0
2018-05-24T03:00:24.706Z,0
2018-05-24T03:01:24.471Z,0
2018-05-24T03:02:24.734Z,0
2018-05-24T03:03:24.734Z,0
2018-05-24T03:04:24.190Z,0
2018-05-24T03:05:24.238Z,0
2018-05-24T03:06:24.816Z,0
2018-05-24T03:07:24.585Z,0
2018-05-24T03:08:24.825Z,0
2018-05-24T03:09:24.579Z,0
2018-05-24T03:10:24.362Z,0
2018-05-24T03:11:24.641Z,0
2018-05-24T03:12:24.777Z,0
2018-05-24T03:13:24.438Z,0
2018-05-24T03:14:24.892Z,0
2018-05-24T03:15:25.028Z,0
2018-05-24T03:16:25.033Z,0
2018-05-24T03:17:24.484Z,0
2018-05-24T03:18:24.780Z,0
2018-05-24T03:19:25.162Z,0
2018-05-24T03:20:25.640Z,0
2018-05-24T03:21:24.596Z,0
2018-05-24T03:22:25.389Z,0
2018-05-24T03:23:24.352Z,0
2018-05-24T03:24:24.666Z,0
2018-05-24T03:25:24.967Z,0
2018-05-24T03:26:24.972Z,0
2018-05-24T03:27:25.247Z,0
2018-05-24T03:28:25.059Z,0
2018-05-24T03:29:25.039Z,0
2018-05-24T03:30:25.317Z,0
2018-05-24T03:31:24.839Z,0
2018-05-24T03:32:25.398Z,0
2018-05-24T03:33:24.844Z,0
2018-05-24T03:34:25.430Z,0
2018-05-24T03:35:25.795Z,0
2018-05-24T03:36:25.449Z,0
2018-05-24T03:37:24.929Z,0
2018-05-24T03:38:25.255Z,0
2018-05-24T03:39:25.262Z,0
2018-05-24T03:40:25.599Z,0
2018-05-24T03:41:25.306Z,0
2018-05-24T03:42:25.622Z,0
2018-05-24T03:43:25.350Z,0
2018-05-24T03:44:25.658Z,0
2018-05-24T03:45:25.658Z,0
2018-05-24T03:46:25.697Z,0
2018-05-24T03:47:25.706Z,0
2018-05-24T03:48:25.722Z,0
2018-05-24T03:49:25.534Z,0
2018-05-24T03:50:25.220Z,0
2018-05-24T03:51:25.266Z,0
2018-05-24T03:52:25.125Z,0
2018-05-24T03:53:25.850Z,0
2018-05-24T03:54:25.850Z,0
2018-05-24T03:55:25.611Z,0
2018-05-24T03:56:25.919Z,0
2018-05-24T03:57:25.712Z,0
2018-05-24T03:58:25.682Z,0
2018-05-24T03:59:25.724Z,0
2018-05-24T04:00:26.007Z,0
2018-05-24T04:01:25.472Z,0
2018-05-24T04:02:25.782Z,0
2018-05-24T04:03:25.814Z,0
2018-05-24T04:04:25.567Z,0
2018-05-24T04:05:26.103Z,0
2018-05-24T04:06:25.848Z,0
2018-05-24T04:07:25.974Z,0
2018-05-24T04:08:25.928Z,0
2018-05-24T04:09:26.188Z,0
2018-05-24T04:10:25.998Z,0
2018-05-24T04:11:25.985Z,0
2018-05-24T04:12:26.315Z,0
2018-05-24T04:13:26.058Z,0
2018-05-24T04:14:26.304Z,0
2018-05-24T04:15:26.077Z,0
2018-05-24T04:16:26.380Z,0
2018-05-24T04:17:26.136Z,0
2018-05-24T04:18:26.118Z,5
2018-05-24T04:19:26.441Z,5
2018-05-24T04:20:26.453Z,5
2018-05-24T04:21:26.451Z,5
2018-05-24T04:22:26.517Z,5
2018-05-24T04:23:26.585Z,5
2018-05-24T04:24:26.558Z,5
2018-05-24T04:25:26.021Z,5
2018-05-24T04:26:26.602Z,5
2018-05-24T04:27:26.327Z,5
2018-05-24T04:28:26.350Z,5
2018-05-24T04:29:26.389Z,5
2018-05-24T04:30:26.167Z,5
2018-05-24T04:31:26.698Z,5
2018-05-24T04:32:26.438Z,5
2018-05-24T04:33:26.476Z,5
2018-05-24T04:34:26.482Z,5
2018-05-24T04:35:26.779Z,5
2018-05-24T04:36:26.840Z,5
2018-05-24T04:37:26.853Z,5
2018-05-24T04:38:26.568Z,5
2018-05-24T04:39:26.602Z,5
2018-05-24T04:40:26.925Z,5
2018-05-24T04:41:26.382Z,5
2018-05-24T04:42:26.955Z,5
2018-05-24T04:43:26.724Z,5
2018-05-24T04:44:26.716Z,5
2018-05-24T04:45:27.168Z,5
2018-05-24T04:46:27.055Z,5
2018-05-24T04:47:26.797Z,5
2018-05-24T04:48:27.094Z,5
2018-05-24T04:49:26.828Z,5
2018-05-24T04:50:27.156Z,5
2018-05-24T04:51:27.168Z,5
2018-05-24T04:52:27.046Z,5
2018-05-24T04:53:27.208Z,10
2018-05-24T04:54:26.949Z,10
2018-05-24T04:55:26.989Z,10
2018-05-24T04:56:27.265Z,10
2018-05-24T04:57:27.012Z,10
2018-05-24T04:58:27.034Z,10
2018-05-24T04:59:27.063Z,10
2018-05-24T05:00:27.349Z,10
2018-05-24T05:01:27.103Z,10
2018-05-24T05:02:27.448Z,10
2018-05-24T05:03:27.160Z,10
2018-05-24T05:04:27.451Z,10
2018-05-24T05:05:27.195Z,15
2018-05-24T05:06:27.527Z,15
2018-05-24T05:07:27.545Z,15
2018-05-24T05:08:27.013Z,15
2018-05-24T05:09:27.080Z,15
2018-05-24T05:10:27.308Z,15
2018-05-24T05:11:27.591Z,15
2018-05-24T05:12:27.113Z,15
2018-05-24T05:13:27.880Z,15
2018-05-24T05:14:27.395Z,15
2018-05-24T05:15:27.186Z,15
2018-05-24T05:16:27.731Z,15
2018-05-24T05:17:27.500Z,15
2018-05-24T05:18:27.774Z,15
2018-05-24T05:19:27.344Z,15
2018-05-24T05:20:27.549Z,15
2018-05-24T05:21:27.835Z,10
2018-05-24T05:22:27.329Z,10
2018-05-24T05:23:28.210Z,10
2018-05-24T05:24:27.619Z,10
2018-05-24T05:25:27.690Z,5
2018-05-24T05:26:27.932Z,5
2018-05-24T05:27:27.710Z,10
2018-05-24T05:28:28.001Z,5
2018-05-24T05:29:27.748Z,5
2018-05-24T05:30:28.044Z,5
2018-05-24T05:31:28.072Z,5
2018-05-24T05:32:27.807Z,5
2018-05-24T05:33:28.094Z,5
2018-05-24T05:34:28.132Z,10
2018-05-24T05:35:28.131Z,10
2018-05-24T05:36:28.159Z,15
2018-05-24T05:37:28.187Z,15
2018-05-24T05:38:28.472Z,20
2018-05-24T05:39:28.068Z,15
2018-05-24T05:40:27.719Z,15
2018-05-24T05:41:28.290Z,15
2018-05-24T05:42:28.009Z,15
2018-05-24T05:43:28.084Z,15
2018-05-24T05:44:27.807Z,15
2018-05-24T05:45:28.390Z,15
2018-05-24T05:46:27.580Z,15
2018-05-24T05:47:27.870Z,20
2018-05-24T05:48:28.169Z,20
2018-05-24T05:49:27.928Z,15
2018-05-24T05:50:27.941Z,10
2018-05-24T05:51:27.964Z,10
2018-05-24T05:52:28.509Z,10
2018-05-24T05:53:28.306Z,15
2018-05-24T05:54:28.047Z,15
2018-05-24T05:55:28.299Z,15
2018-05-24T05:56:28.590Z,20
2018-05-24T05:57:28.392Z,20
2018-05-24T05:58:28.667Z,20
2018-05-24T05:59:28.851Z,20
2018-05-24T06:00:28.703Z,20
2018-05-24T06:01:28.450Z,20
2018-05-24T06:02:28.257Z,20
2018-05-24T06:03:28.257Z,20
2018-05-24T06:04:28.251Z,20
2018-05-24T06:05:28.552Z,20
2018-05-24T06:06:28.873Z,20
2018-05-24T06:07:28.931Z,20
2018-05-24T06:08:28.908Z,20
2018-05-24T06:09:28.939Z,20
2018-05-24T06:10:28.967Z,20
2018-05-24T06:11:28.983Z,15
2018-05-24T06:12:28.459Z,15
2018-05-24T06:13:28.499Z,15
2018-05-24T06:14:29.022Z,15
2018-05-24T06:15:29.295Z,15
2018-05-24T06:16:29.059Z,15
2018-05-24T06:17:28.830Z,15
2018-05-24T06:18:28.561Z,20
2018-05-24T06:19:28.880Z,15
2018-05-24T06:20:28.643Z,10
2018-05-24T06:21:28.938Z,10
2018-05-24T06:22:28.662Z,10
2018-05-24T06:23:29.027Z,10
2018-05-24T06:24:29.093Z,10
2018-05-24T06:25:28.748Z,10
2018-05-24T06:26:29.038Z,10
2018-05-24T06:27:29.064Z,10
2018-05-24T06:28:29.488Z,10
2018-05-24T06:29:29.100Z,10
2018-05-24T06:30:29.399Z,10
2018-05-24T06:31:29.237Z,10
2018-05-24T06:32:28.888Z,15
2018-05-24T06:33:29.479Z,15
2018-05-24T06:34:28.986Z,10
2018-05-24T06:35:29.529Z,10
2018-05-24T06:36:29.548Z,15
2018-05-24T06:37:29.271Z,15
2018-05-24T06:38:29.289Z,15
2018-05-24T06:39:29.685Z,15
2018-05-24T06:40:29.446Z,15
2018-05-24T06:41:29.659Z,15
2018-05-24T06:42:29.695Z,15
2018-05-24T06:43:29.479Z,15
2018-05-24T06:44:29.767Z,20
2018-05-24T06:45:29.212Z,20
2018-05-24T06:46:30.095Z,20
2018-05-24T06:47:29.799Z,20
2018-05-24T06:48:29.831Z,20
2018-05-24T06:49:29.536Z,20
2018-05-24T06:50:29.841Z,20
2018-05-24T06:51:29.870Z,20
2018-05-24T06:52:29.596Z,15
2018-05-24T06:53:29.628Z,15
2018-05-24T06:54:29.707Z,15
2018-05-24T06:55:30.001Z,10
2018-05-24T06:56:29.728Z,10
2018-05-24T06:57:29.770Z,15
2018-05-24T06:58:30.019Z,15
2018-05-24T06:59:30.040Z,15
2018-05-24T07:00:30.077Z,20
2018-05-24T07:01:30.088Z,20
2018-05-24T07:02:29.867Z,20
2018-05-24T07:03:29.877Z,25
2018-05-24T07:04:29.611Z,25
2018-05-24T07:05:29.900Z,25
2018-05-24T07:06:29.660Z,20
2018-05-24T07:07:30.236Z,20
2018-05-24T07:08:30.313Z,20
2018-05-24T07:09:30.036Z,20
2018-05-24T07:10:29.774Z,25
2018-05-24T07:11:30.061Z,25
2018-05-24T07:12:30.080Z,25
2018-05-24T07:13:30.432Z,25
2018-05-24T07:14:29.588Z,25
2018-05-24T07:15:30.459Z,25
2018-05-24T07:16:30.210Z,25
2018-05-24T07:17:30.211Z,25
2018-05-24T07:18:30.329Z,30
2018-05-24T07:19:30.532Z,30
2018-05-24T07:20:30.283Z,30
2018-05-24T07:21:30.009Z,25
2018-05-24T07:22:30.601Z,25
2018-05-24T07:23:30.619Z,25
2018-05-24T07:24:29.872Z,25
2018-05-24T07:25:30.667Z,25
2018-05-24T07:26:30.679Z,25
2018-05-24T07:27:30.436Z,25
2018-05-24T07:28:30.750Z,25
2018-05-24T07:29:30.467Z,25
2018-05-24T07:30:30.770Z,25
2018-05-24T07:31:29.712Z,25
2018-05-24T07:32:30.569Z,20
2018-05-24T07:33:30.301Z,20
2018-05-24T07:34:30.327Z,20
2018-05-24T07:35:30.614Z,20
2018-05-24T07:36:30.394Z,20
2018-05-24T07:37:30.116Z,15
2018-05-24T07:38:30.692Z,15
2018-05-24T07:39:30.698Z,15
2018-05-24T07:40:30.997Z,15
2018-05-24T07:41:30.787Z,15
2018-05-24T07:42:31.035Z,20
2018-05-24T07:43:31.092Z,20
2018-05-24T07:44:31.089Z,20
2018-05-24T07:45:30.554Z,25
2018-05-24T07:46:30.879Z,25
2018-05-24T07:47:30.613Z,25
2018-05-24T07:48:30.388Z,25
2018-05-24T07:49:31.259Z,25
2018-05-24T07:50:30.489Z,25
2018-05-24T07:51:31.254Z,25
2018-05-24T07:52:31.003Z,25
2018-05-24T07:53:31.059Z,25
2018-05-24T07:54:31.373Z,30
2018-05-24T07:55:30.833Z,30
2018-05-24T07:56:31.097Z,35
2018-05-24T07:57:31.413Z,35
2018-05-24T07:58:31.426Z,35
2018-05-24T07:59:31.156Z,40
2018-05-24T08:00:31.227Z,40
2018-05-24T08:01:31.021Z,40
2018-05-24T08:02:31.251Z,40
2018-05-24T08:03:31.550Z,45
2018-05-24T08:04:31.355Z,45
2018-05-24T08:05:31.614Z,45
2018-05-24T08:06:31.056Z,45
2018-05-24T08:07:31.641Z,50
2018-05-24T08:08:31.473Z,50
2018-05-24T08:09:31.417Z,50
2018-05-24T08:10:31.452Z,50
2018-05-24T08:11:30.647Z,50
2018-05-24T08:12:31.472Z,50
2018-05-24T08:13:31.492Z,50
2018-05-24T08:14:31.292Z,50
2018-05-24T08:15:31.546Z,50
2018-05-24T08:16:31.587Z,50
2018-05-24T08:17:31.599Z,50
2018-05-24T08:18:31.897Z,50
2018-05-24T08:19:31.662Z,50
2018-05-24T08:20:31.655Z,50
2018-05-24T08:21:31.707Z,50
2018-05-24T08:22:32.004Z,50
2018-05-24T08:23:31.748Z,50
2018-05-24T08:24:31.754Z,50
2018-05-24T08:25:31.502Z,50
2018-05-24T08:26:31.836Z,50
2018-05-24T08:27:31.573Z,55
2018-05-24T08:28:31.874Z,55
2018-05-24T08:29:31.631Z,50
2018-05-24T08:30:32.195Z,50
2018-05-24T08:31:31.933Z,50
2018-05-24T08:32:31.975Z,50
2018-05-24T08:33:32.268Z,50
2018-05-24T08:34:32.067Z,45
2018-05-24T08:35:32.323Z,45
2018-05-24T08:36:32.279Z,45
2018-05-24T08:37:32.082Z,40
2018-05-24T08:38:32.364Z,40
2018-05-24T08:39:31.908Z,40
2018-05-24T08:40:31.647Z,35
2018-05-24T08:41:32.199Z,35
2018-05-24T08:42:32.218Z,35
2018-05-24T08:43:32.209Z,35
2018-05-24T08:44:32.304Z,35
2018-05-24T08:45:32.348Z,30
2018-05-24T08:46:32.606Z,30
2018-05-24T08:47:32.630Z,30
2018-05-24T08:48:32.620Z,30
2018-05-24T08:49:32.667Z,30
2018-05-24T08:50:32.663Z,35
2018-05-24T08:51:31.892Z,35
2018-05-24T08:52:32.718Z,40
2018-05-24T08:53:32.830Z,40
2018-05-24T08:54:32.823Z,40
2018-05-24T08:55:32.235Z,40
2018-05-24T08:56:32.000Z,40
2018-05-24T08:57:32.854Z,40
2018-05-24T08:58:32.335Z,35
2018-05-24T08:59:32.341Z,35
2018-05-24T09:00:32.656Z,35
2018-05-24T09:01:33.351Z,35
2018-05-24T09:02:32.945Z,35
2018-05-24T09:03:32.413Z,35
2018-05-24T09:04:32.717Z,40
2018-05-24T09:05:33.050Z,40
2018-05-24T09:06:32.779Z,40
2018-05-24T09:07:32.816Z,45
2018-05-24T09:08:32.831Z,45
2018-05-24T09:09:32.930Z,45
2018-05-24T09:10:32.609Z,45
2018-05-24T09:11:32.908Z,40
2018-05-24T09:12:32.950Z,40
2018-05-24T09:13:33.235Z,40
2018-05-24T09:14:32.693Z,40
2018-05-24T09:15:32.740Z,40
2018-05-24T09:16:32.479Z,40
2018-05-24T09:17:32.797Z,40
2018-05-24T09:18:32.614Z,40
2018-05-24T09:19:33.122Z,40
2018-05-24T09:20:33.095Z,40
2018-05-24T09:21:32.887Z,40
2018-05-24T09:22:33.184Z,40
2018-05-24T09:23:32.653Z,45
2018-05-24T09:24:33.500Z,45
2018-05-24T09:25:33.229Z,50
2018-05-24T09:26:32.807Z,50
2018-05-24T09:27:33.564Z,50
2018-05-24T09:28:33.681Z,50
2018-05-24T09:29:33.722Z,50
2018-05-24T09:30:33.393Z,50
2018-05-24T09:31:33.417Z,50
2018-05-24T09:32:33.148Z,50
2018-05-24T09:33:33.182Z,45
2018-05-24T09:34:33.543Z,45
2018-05-24T09:35:33.500Z,45
2018-05-24T09:36:33.800Z,45
2018-05-24T09:37:33.284Z,45
2018-05-24T09:38:33.305Z,45
2018-05-24T09:39:33.068Z,45
2018-05-24T09:40:33.103Z,45
2018-05-24T09:41:33.674Z,45
2018-05-24T09:42:33.972Z,45
2018-05-24T09:43:33.959Z,45
2018-05-24T09:44:33.728Z,40
2018-05-24T09:45:34.032Z,40
2018-05-24T09:46:34.054Z,40
2018-05-24T09:47:33.553Z,35
2018-05-24T09:48:34.107Z,35
2018-05-24T09:49:33.836Z,35
2018-05-24T09:50:33.885Z,30
2018-05-24T09:51:33.925Z,30
2018-05-24T09:52:34.218Z,30
2018-05-24T09:53:34.227Z,30
2018-05-24T09:54:33.972Z,30
2018-05-24T09:55:33.492Z,30
2018-05-24T09:56:34.305Z,30
2018-05-24T09:57:34.349Z,30
2018-05-24T09:58:34.111Z,30
2018-05-24T09:59:33.853Z,30
2018-05-24T10:00:33.595Z,30
2018-05-24T10:01:34.174Z,30
2018-05-24T10:02:33.959Z,30
2018-05-24T10:03:34.512Z,30
2018-05-24T10:04:33.809Z,30
2018-05-24T10:05:34.548Z,35
2018-05-24T10:06:34.574Z,35
2018-05-24T10:07:34.322Z,40
2018-05-24T10:08:34.349Z,40
2018-05-24T10:09:34.652Z,45
2018-05-24T10:10:34.595Z,45
2018-05-24T10:11:34.153Z,45
2018-05-24T10:12:34.695Z,50
2018-05-24T10:13:34.479Z,50
2018-05-24T10:14:34.267Z,50
2018-05-24T10:15:34.811Z,50
2018-05-24T10:16:35.439Z,50
2018-05-24T10:17:34.566Z,50
2018-05-24T10:18:34.581Z,50
2018-05-24T10:19:34.657Z,50
2018-05-24T10:20:34.396Z,50
2018-05-24T10:21:34.952Z,50
2018-05-24T10:22:35.006Z,50
2018-05-24T10:23:35.020Z,45
2018-05-24T10:24:34.237Z,45
2018-05-24T10:25:34.797Z,45
2018-05-24T10:26:35.092Z,45
2018-05-24T10:27:35.125Z,45
2018-05-24T10:28:34.865Z,45
2018-05-24T10:29:35.217Z,45
2018-05-24T10:30:34.664Z,45
2018-05-24T10:31:34.658Z,40
2018-05-24T10:32:34.691Z,40
2018-05-24T10:33:35.281Z,40
2018-05-24T10:34:35.090Z,35
2018-05-24T10:35:35.040Z,35
2018-05-24T10:36:35.088Z,35
2018-05-24T10:37:35.391Z,35
2018-05-24T10:38:34.576Z,35
2018-05-24T10:39:35.101Z,35
2018-05-24T10:40:34.895Z,35
2018-05-24T10:41:34.925Z,35
2018-05-24T10:42:35.521Z,35
2018-05-24T10:43:35.510Z,30
2018-05-24T10:44:35.317Z,30
2018-05-24T10:45:35.560Z,30
2018-05-24T10:46:35.360Z,30
2018-05-24T10:47:35.628Z,30
2018-05-24T10:48:35.656Z,30
2018-05-24T10:49:35.770Z,30
2018-05-24T10:50:35.451Z,30
2018-05-24T10:51:35.761Z,25
2018-05-24T10:52:35.750Z,25
2018-05-24T10:53:35.543Z,25
2018-05-24T10:54:35.811Z,25
2018-05-24T10:55:35.834Z,25
2018-05-24T10:56:35.929Z,25
2018-05-24T10:57:35.907Z,25
2018-05-24T10:58:35.929Z,25
2018-05-24T10:59:35.314Z,25
2018-05-24T11:00:36.016Z,25
2018-05-24T11:01:35.477Z,25
2018-05-24T11:02:35.529Z,25
2018-05-24T11:03:35.993Z,25
2018-05-24T11:04:35.815Z,25
2018-05-24T11:05:36.133Z,25
2018-05-24T11:06:36.046Z,25
2018-05-24T11:07:36.170Z,25
2018-05-24T11:08:36.203Z,25
2018-05-24T11:09:35.934Z,25
2018-05-24T11:10:36.225Z,25
2018-05-24T11:11:36.185Z,30
2018-05-24T11:12:35.768Z,30
2018-05-24T11:13:36.328Z,30
2018-05-24T11:14:36.098Z,30
2018-05-24T11:15:36.369Z,30
2018-05-24T11:16:36.392Z,30
2018-05-24T11:17:36.130Z,30
2018-05-24T11:18:36.176Z,30
2018-05-24T11:19:36.217Z,30
2018-05-24T11:20:36.533Z,30
2018-05-24T11:21:36.533Z,30
2018-05-24T11:22:35.722Z,30
2018-05-24T11:23:36.310Z,30
2018-05-24T11:24:36.677Z,30
2018-05-24T11:25:35.866Z,30
2018-05-24T11:26:36.403Z,30
2018-05-24T11:27:36.138Z,30
2018-05-24T11:28:36.717Z,30
2018-05-24T11:29:36.718Z,30
2018-05-24T11:30:36.491Z,30
2018-05-24T11:31:36.776Z,30
2018-05-24T11:32:36.525Z,30
2018-05-24T11:33:36.567Z,30
2018-05-24T11:34:36.859Z,30
2018-05-24T11:35:36.909Z,30
2018-05-24T11:36:36.646Z,30
2018-05-24T11:37:36.922Z,30
2018-05-24T11:38:36.959Z,30
2018-05-24T11:39:36.714Z,35
2018-05-24T11:40:36.817Z,35
2018-05-24T11:41:36.783Z,35
2018-05-24T11:42:37.051Z,35
2018-05-24T11:43:37.346Z,35
2018-05-24T11:44:36.834Z,35
2018-05-24T11:45:37.157Z,35
2018-05-24T11:46:36.905Z,35
2018-05-24T11:47:36.645Z,35
2018-05-24T11:48:36.963Z,35
2018-05-24T11:49:36.991Z,40
2018-05-24T11:50:37.323Z,40
2018-05-24T11:51:37.286Z,40
2018-05-24T11:52:37.075Z,40
2018-05-24T11:53:37.081Z,40
2018-05-24T11:54:37.119Z,40
2018-05-24T11:55:37.406Z,40
2018-05-24T11:56:37.141Z,35
2018-05-24T11:57:37.216Z,35
2018-05-24T11:58:37.506Z,40
2018-05-24T11:59:37.256Z,40
2018-05-24T12:00:36.733Z,40
2018-05-24T12:01:37.589Z,40
2018-05-24T12:02:37.330Z,45
2018-05-24T12:03:37.612Z,45
2018-05-24T12:04:37.126Z,45
2018-05-24T12:05:37.394Z,45
2018-05-24T12:06:37.168Z,45
2018-05-24T12:07:37.207Z,45
2018-05-24T12:08:37.546Z,50
2018-05-24T12:09:37.533Z,50
2018-05-24T12:10:37.814Z,50
2018-05-24T12:11:37.824Z,50
2018-05-24T12:12:37.857Z,50
2018-05-24T12:13:37.615Z,50
2018-05-24T12:14:37.631Z,50
2018-05-24T12:15:37.673Z,50
2018-05-24T12:16:37.985Z,50
2018-05-24T12:17:37.464Z,50
2018-05-24T12:18:37.753Z,50
2018-05-24T12:19:37.776Z,50
2018-05-24T12:20:38.127Z,50
2018-05-24T12:21:38.075Z,50
2018-05-24T12:22:38.131Z,50
2018-05-24T12:23:37.922Z,45
2018-05-24T12:24:38.154Z,45
2018-05-24T12:25:38.205Z,45
2018-05-24T12:26:37.966Z,45
2018-05-24T12:27:37.453Z,45
2018-05-24T12:28:37.495Z,40
2018-05-24T12:29:37.762Z,40
2018-05-24T12:30:38.329Z,40
2018-05-24T12:31:38.069Z,40
2018-05-24T12:32:38.431Z,40
2018-05-24T12:33:37.888Z,40
2018-05-24T12:34:37.921Z,40
2018-05-24T12:35:37.921Z,40
2018-05-24T12:36:38.064Z,40
2018-05-24T12:37:38.554Z,40
2018-05-24T12:38:38.550Z,40
2018-05-24T12:39:38.035Z,40
2018-05-24T12:40:37.843Z,45
2018-05-24T12:41:38.520Z,45
2018-05-24T12:42:38.390Z,45
2018-05-24T12:43:38.408Z,45
2018-05-24T12:44:38.164Z,50
2018-05-24T12:45:38.468Z,50
2018-05-24T12:46:38.510Z,50
2018-05-24T12:47:38.524Z,50
2018-05-24T12:48:38.277Z,55
2018-05-24T12:49:38.287Z,55
2018-05-24T12:50:38.039Z,55
2018-05-24T12:51:38.647Z,55
2018-05-24T12:52:38.938Z,55
2018-05-24T12:53:38.658Z,55
2018-05-24T12:54:38.691Z,55
2018-05-24T12:55:38.714Z,50
2018-05-24T12:56:39.044Z,50
2018-05-24T12:57:39.063Z,50
2018-05-24T12:58:38.835Z,50
2018-05-24T12:59:38.597Z,50
2018-05-24T13:00:39.184Z,50
2018-05-24T13:01:39.158Z,50
2018-05-24T13:02:38.936Z,50
2018-05-24T13:03:39.204Z,50
2018-05-24T13:04:38.733Z,50
2018-05-24T13:05:39.009Z,50
2018-05-24T13:06:39.054Z,50
2018-05-24T13:07:39.325Z,45
2018-05-24T13:08:38.927Z,45
2018-05-24T13:09:39.123Z,45
2018-05-24T13:10:39.107Z,45
2018-05-24T13:11:39.168Z,45
2018-05-24T13:12:38.923Z,45
2018-05-24T13:13:38.954Z,45
2018-05-24T13:14:39.508Z,45
2018-05-24T13:15:39.540Z,50
2018-05-24T13:16:39.334Z,50
2018-05-24T13:17:39.319Z,50
2018-05-24T13:18:39.356Z,50
2018-05-24T13:19:39.676Z,50
2018-05-24T13:20:39.707Z,50
2018-05-24T13:21:39.163Z,50
2018-05-24T13:22:39.733Z,50
2018-05-24T13:23:39.770Z,50
2018-05-24T13:24:40.011Z,50
2018-05-24T13:25:39.545Z,45
2018-05-24T13:26:39.592Z,45
2018-05-24T13:27:39.348Z,45
2018-05-24T13:28:39.966Z,45
2018-05-24T13:29:39.639Z,45
2018-05-24T13:30:39.932Z,45
2018-05-24T13:31:39.761Z,45
2018-05-24T13:32:39.489Z,45
2018-05-24T13:33:39.776Z,45
2018-05-24T13:34:39.646Z,45
2018-05-24T13:35:39.875Z,45
2018-05-24T13:36:39.831Z,45
2018-05-24T13:37:39.903Z,45
2018-05-24T13:38:39.884Z,45
2018-05-24T13:39:40.186Z,45
2018-05-24T13:40:40.104Z,45
2018-05-24T13:41:40.245Z,45
2018-05-24T13:42:40.004Z,45
2018-05-24T13:43:40.040Z,45
2018-05-24T13:44:40.069Z,45
2018-05-24T13:45:39.821Z,45
2018-05-24T13:46:40.115Z,45
2018-05-24T13:47:40.101Z,45
2018-05-24T13:48:40.199Z,45
2018-05-24T13:49:40.438Z,45
2018-05-24T13:50:40.295Z,45
2018-05-24T13:51:39.992Z,45
2018-05-24T13:52:40.897Z,45
2018-05-24T13:53:40.567Z,45
2018-05-24T13:54:40.620Z,45
2018-05-24T13:55:40.139Z,45
2018-05-24T13:56:40.390Z,45
2018-05-24T13:57:40.407Z,45
2018-05-24T13:58:40.711Z,40
2018-05-24T13:59:40.459Z,40
2018-05-24T14:00:40.767Z,40
2018-05-24T14:01:40.558Z,40
2018-05-24T14:02:40.549Z,40
2018-05-24T14:03:40.852Z,35
2018-05-24T14:04:40.600Z,35
2018-05-24T14:05:40.645Z,35
2018-05-24T14:06:40.395Z,35
2018-05-24T14:07:40.394Z,35
2018-05-24T14:08:40.179Z,35
2018-05-24T14:09:40.734Z,35
2018-05-24T14:10:40.748Z,35
2018-05-24T14:11:40.537Z,35
2018-05-24T14:12:41.086Z,35
2018-05-24T14:13:40.857Z,35
2018-05-24T14:14:40.624Z,35
2018-05-24T14:15:40.918Z,30
2018-05-24T14:16:40.935Z,30
2018-05-24T14:17:40.970Z,30
2018-05-24T14:18:41.033Z,30
2018-05-24T14:19:41.022Z,30
2018-05-24T14:20:41.322Z,30
2018-05-24T14:21:41.066Z,30
2018-05-24T14:22:40.819Z,30
2018-05-24T14:23:41.396Z,30
2018-05-24T14:24:41.416Z,30
2018-05-24T14:25:41.190Z,30
2018-05-24T14:26:41.500Z,30